createdAt,value
2023-06-29T00:00:59.299Z,18.57
2023-06-29T00:02:01.186Z,18.56
2023-06-29T00:03:04.213Z,18.53
2023-06-29T00:04:06.140Z,18.53
2023-06-29T00:05:09.441Z,18.50
2023-06-29T00:06:11.247Z,18.52
2023-06-29T00:07:13.099Z,18.51
2023-06-29T00:08:14.979Z,18.50
2023-06-29T00:09:18.089Z,18.53
2023-06-29T00:10:19.972Z,18.51
2023-06-29T00:11:23.371Z,18.49
2023-06-29T00:12:25.224Z,18.49
2023-06-29T00:13:27.106Z,18.49
2023-06-29T00:14:28.951Z,18.48
2023-06-29T00:15:30.768Z,18.48
2023-06-29T00:16:32.647Z,18.47
2023-06-29T00:17:35.706Z,18.48
2023-06-29T00:18:37.566Z,18.47
2023-06-29T00:19:39.423Z,18.48
2023-06-29T00:20:43.853Z,18.47
2023-06-29T00:21:47.639Z,18.46
2023-06-29T00:22:49.570Z,18.44
2023-06-29T00:23:51.416Z,18.44
2023-06-29T00:24:57.928Z,18.44
2023-06-29T00:26:00.234Z,18.44
2023-06-29T00:27:02.022Z,18.43
2023-06-29T00:28:04.267Z,18.41
2023-06-29T00:29:06.721Z,18.40
2023-06-29T00:30:09.643Z,18.38
2023-06-29T00:31:11.548Z,18.37
2023-06-29T00:32:14.296Z,18.35
2023-06-29T00:33:17.629Z,18.36
2023-06-29T00:34:19.431Z,18.35
2023-06-29T00:35:21.293Z,18.34
2023-06-29T00:36:23.197Z,18.32
2023-06-29T00:37:25.040Z,18.33
2023-06-29T00:38:26.934Z,18.32
2023-06-29T00:39:28.746Z,18.32
2023-06-29T00:40:30.622Z,18.31
2023-06-29T00:41:32.506Z,18.30
2023-06-29T00:42:34.283Z,18.31
2023-06-29T00:43:36.097Z,18.30
2023-06-29T00:44:37.940Z,18.30
2023-06-29T00:45:39.743Z,18.29
2023-06-29T00:46:41.889Z,18.29
2023-06-29T00:47:44.003Z,18.26
2023-06-29T00:48:46.168Z,18.27
2023-06-29T00:49:48.105Z,18.26
2023-06-29T00:50:49.907Z,18.25
2023-06-29T00:51:54.654Z,18.22
2023-06-29T00:52:57.001Z,18.23
2023-06-29T00:54:00.009Z,18.23
2023-06-29T00:55:02.267Z,18.22
2023-06-29T00:56:05.171Z,18.21
2023-06-29T00:57:09.920Z,18.20
2023-06-29T00:58:12.337Z,18.21
2023-06-29T00:59:14.711Z,18.20
2023-06-29T01:00:17.340Z,18.21
2023-06-29T01:01:19.305Z,18.20
2023-06-29T01:02:21.289Z,18.21
2023-06-29T01:03:24.004Z,18.20
2023-06-29T01:04:27.092Z,18.21
2023-06-29T01:05:34.193Z,18.22
2023-06-29T01:06:49.581Z,18.21
2023-06-29T01:08:08.796Z,18.18
2023-06-29T01:09:11.170Z,18.17
2023-06-29T01:10:16.215Z,18.15
2023-06-29T01:11:22.237Z,18.13
2023-06-29T01:12:24.749Z,18.12
2023-06-29T01:13:28.886Z,18.10
2023-06-29T01:14:34.489Z,18.11
2023-06-29T01:15:40.550Z,18.09
2023-06-29T01:16:44.804Z,18.08
2023-06-29T01:17:50.723Z,18.08
2023-06-29T01:18:55.232Z,18.06
2023-06-29T01:19:59.034Z,18.06
2023-06-29T01:21:03.622Z,18.05
2023-06-29T01:22:31.259Z,18.04
2023-06-29T01:23:39.177Z,18.02
2023-06-29T01:24:42.110Z,18.02
2023-06-29T01:25:44.699Z,18.00
2023-06-29T01:26:49.801Z,17.98
2023-06-29T01:27:52.142Z,17.97
2023-06-29T01:28:54.240Z,17.96
2023-06-29T01:29:56.593Z,17.95
2023-06-29T01:30:59.391Z,17.95
2023-06-29T01:32:05.054Z,17.94
2023-06-29T01:33:10.948Z,17.95
2023-06-29T01:34:13.306Z,17.95
2023-06-29T01:35:15.354Z,17.94
2023-06-29T01:36:45.221Z,17.94
2023-06-29T01:38:03.042Z,17.94
2023-06-29T01:39:14.731Z,17.94
2023-06-29T01:40:25.593Z,17.91
2023-06-29T01:41:30.532Z,17.93
2023-06-29T01:42:33.966Z,17.92
2023-06-29T01:43:37.403Z,17.90
2023-06-29T01:44:39.491Z,17.89
2023-06-29T01:45:43.083Z,17.88
2023-06-29T01:46:48.104Z,17.87
2023-06-29T01:47:50.521Z,17.87
2023-06-29T01:48:53.076Z,17.84
2023-06-29T01:49:56.699Z,17.84
2023-06-29T01:50:59.218Z,17.83
2023-06-29T01:52:01.168Z,17.81
2023-06-29T01:53:03.479Z,17.80
2023-06-29T01:54:06.025Z,17.79
2023-06-29T01:55:11.065Z,17.77
2023-06-29T01:56:15.087Z,17.75
2023-06-29T01:57:17.341Z,17.75
2023-06-29T01:58:19.167Z,17.74
2023-06-29T01:59:21.120Z,17.74
2023-06-29T02:00:23.320Z,17.72
2023-06-29T02:01:25.336Z,17.70
2023-06-29T02:02:27.327Z,17.70
2023-06-29T02:03:29.360Z,17.69
2023-06-29T02:04:31.340Z,17.66
2023-06-29T02:05:33.172Z,17.66
2023-06-29T02:06:35.142Z,17.63
2023-06-29T02:07:37.014Z,17.63
2023-06-29T02:08:39.882Z,17.61
2023-06-29T02:09:41.785Z,17.61
2023-06-29T02:10:43.655Z,17.60
2023-06-29T02:11:45.545Z,17.58
2023-06-29T02:12:47.390Z,17.56
2023-06-29T02:13:49.301Z,17.54
2023-06-29T02:14:51.131Z,17.51
2023-06-29T02:15:53.145Z,17.49
2023-06-29T02:16:55.586Z,17.48
2023-06-29T02:17:57.473Z,17.47
2023-06-29T02:18:59.416Z,17.44
2023-06-29T02:20:01.281Z,17.43
2023-06-29T02:21:03.127Z,17.43
2023-06-29T02:22:07.852Z,17.42
2023-06-29T02:23:09.865Z,17.43
2023-06-29T02:24:11.861Z,17.42
2023-06-29T02:25:15.914Z,17.42
2023-06-29T02:26:17.887Z,17.43
2023-06-29T02:27:19.697Z,17.43
2023-06-29T02:28:21.505Z,17.44
2023-06-29T02:29:23.330Z,17.45
2023-06-29T02:30:25.290Z,17.44
2023-06-29T02:31:27.214Z,17.45
2023-06-29T02:32:29.114Z,17.46
2023-06-29T02:33:31.225Z,17.45
2023-06-29T02:34:33.007Z,17.45
2023-06-29T02:35:34.815Z,17.45
2023-06-29T02:36:36.640Z,17.45
2023-06-29T02:37:38.472Z,17.44
2023-06-29T02:38:40.335Z,17.45
2023-06-29T02:39:42.214Z,17.45
2023-06-29T02:40:44.117Z,17.46
2023-06-29T02:41:46.084Z,17.45
2023-06-29T02:42:47.925Z,17.45
2023-06-29T02:43:49.796Z,17.46
2023-06-29T02:44:51.659Z,17.43
2023-06-29T02:45:53.490Z,17.43
2023-06-29T02:46:55.300Z,17.45
2023-06-29T02:47:57.195Z,17.43
2023-06-29T02:48:59.147Z,17.43
2023-06-29T02:50:01.175Z,17.42
2023-06-29T02:51:04.143Z,17.43
2023-06-29T02:52:06.593Z,17.42
2023-06-29T02:53:08.400Z,17.44
2023-06-29T02:54:10.405Z,17.43
2023-06-29T02:55:12.255Z,17.44
2023-06-29T02:56:14.077Z,17.43
2023-06-29T02:57:15.876Z,17.43
2023-06-29T02:58:17.691Z,17.43
2023-06-29T02:59:19.490Z,17.44
2023-06-29T03:00:21.395Z,17.42
2023-06-29T03:01:23.397Z,17.42
2023-06-29T03:02:25.333Z,17.42
2023-06-29T03:03:27.277Z,17.42
2023-06-29T03:04:29.213Z,17.41
2023-06-29T03:05:31.082Z,17.41
2023-06-29T03:06:33.273Z,17.41
2023-06-29T03:07:35.477Z,17.39
2023-06-29T03:08:37.303Z,17.39
2023-06-29T03:09:39.167Z,17.39
2023-06-29T03:10:41.068Z,17.39
2023-06-29T03:11:42.883Z,17.38
2023-06-29T03:12:44.727Z,17.38
2023-06-29T03:13:47.648Z,17.37
2023-06-29T03:14:49.745Z,17.37
2023-06-29T03:15:51.883Z,17.37
2023-06-29T03:16:53.744Z,17.36
2023-06-29T03:17:55.645Z,17.36
2023-06-29T03:18:57.442Z,17.35
2023-06-29T03:19:59.258Z,17.34
2023-06-29T03:21:09.942Z,17.33
2023-06-29T03:22:19.083Z,17.33
2023-06-29T03:23:21.084Z,17.34
2023-06-29T03:24:22.846Z,17.34
2023-06-29T03:25:24.989Z,17.36
2023-06-29T03:26:26.823Z,17.34
2023-06-29T03:27:28.603Z,17.35
2023-06-29T03:28:30.428Z,17.35
2023-06-29T03:29:32.244Z,17.35
2023-06-29T03:30:34.116Z,17.35
2023-06-29T03:31:35.927Z,17.35
2023-06-29T03:32:37.830Z,17.35
2023-06-29T03:33:39.721Z,17.36
2023-06-29T03:34:41.568Z,17.35
2023-06-29T03:35:43.593Z,17.34
2023-06-29T03:36:45.707Z,17.34
2023-06-29T03:37:47.556Z,17.33
2023-06-29T03:38:49.410Z,17.33
2023-06-29T03:39:51.372Z,17.31
2023-06-29T03:40:53.270Z,17.30
2023-06-29T03:41:55.290Z,17.31
2023-06-29T03:42:57.074Z,17.30
2023-06-29T03:43:58.942Z,17.29
2023-06-29T03:45:00.738Z,17.30
2023-06-29T03:46:02.634Z,17.31
2023-06-29T03:47:05.031Z,17.30
2023-06-29T03:48:07.142Z,17.30
2023-06-29T03:49:08.994Z,17.31
2023-06-29T03:50:11.402Z,17.30
2023-06-29T03:51:13.331Z,17.30
2023-06-29T03:52:15.201Z,17.30
2023-06-29T03:53:16.986Z,17.31
2023-06-29T03:54:18.854Z,17.33
2023-06-29T03:55:20.700Z,17.35
2023-06-29T03:56:22.597Z,17.37
2023-06-29T03:57:24.382Z,17.36
2023-06-29T03:58:26.215Z,17.37
2023-06-29T03:59:28.039Z,17.38
2023-06-29T04:00:29.883Z,17.39
2023-06-29T04:01:31.764Z,17.41
2023-06-29T04:02:33.676Z,17.41
2023-06-29T04:03:35.606Z,17.42
2023-06-29T04:04:37.509Z,17.46
2023-06-29T04:05:39.474Z,17.48
2023-06-29T04:06:41.364Z,17.49
2023-06-29T04:07:43.177Z,17.49
2023-06-29T04:08:44.997Z,17.49
2023-06-29T04:09:46.827Z,17.50
2023-06-29T04:10:49.013Z,17.50
2023-06-29T04:11:50.857Z,17.49
2023-06-29T04:12:52.713Z,17.50
2023-06-29T04:13:54.864Z,17.49
2023-06-29T04:14:56.648Z,17.53
2023-06-29T04:15:58.449Z,17.54
2023-06-29T04:17:00.303Z,17.56
2023-06-29T04:18:02.782Z,17.58
2023-06-29T04:19:04.736Z,17.60
2023-06-29T04:20:07.275Z,17.62
2023-06-29T04:21:09.116Z,17.65
2023-06-29T04:22:10.993Z,17.66
2023-06-29T04:23:16.037Z,17.65
2023-06-29T04:24:18.400Z,17.66
2023-06-29T04:25:20.347Z,17.66
2023-06-29T04:26:23.713Z,17.66
2023-06-29T04:27:25.500Z,17.65
2023-06-29T04:28:27.316Z,17.66
2023-06-29T04:29:29.168Z,17.67
2023-06-29T04:30:31.040Z,17.68
2023-06-29T04:31:34.864Z,17.67
2023-06-29T04:32:36.781Z,17.68
2023-06-29T04:33:39.732Z,17.71
2023-06-29T04:34:41.648Z,17.73
2023-06-29T04:35:46.011Z,17.75
2023-06-29T04:36:48.057Z,17.76
2023-06-29T04:37:49.880Z,17.78
2023-06-29T04:38:51.941Z,17.80
2023-06-29T04:39:53.797Z,17.83
2023-06-29T04:41:05.103Z,17.86
2023-06-29T04:42:11.758Z,17.89
2023-06-29T04:43:14.611Z,17.91
2023-06-29T04:44:16.488Z,17.92
2023-06-29T04:45:21.047Z,17.93
2023-06-29T04:46:22.867Z,17.95
2023-06-29T04:47:25.348Z,17.95
2023-06-29T04:48:34.071Z,17.98
2023-06-29T04:49:40.840Z,17.98
2023-06-29T04:50:42.713Z,17.98
2023-06-29T04:51:44.599Z,17.99
2023-06-29T04:52:46.470Z,18.00
2023-06-29T04:53:48.440Z,18.01
2023-06-29T04:54:50.250Z,18.00
2023-06-29T04:55:52.138Z,18.01
2023-06-29T04:56:55.706Z,18.00
2023-06-29T04:57:57.493Z,18.02
2023-06-29T04:58:59.744Z,18.04
2023-06-29T05:00:01.631Z,18.04
2023-06-29T05:01:04.582Z,18.03
2023-06-29T05:02:06.853Z,18.07
2023-06-29T05:03:08.702Z,18.08
2023-06-29T05:04:10.550Z,18.10
2023-06-29T05:05:12.756Z,18.14
2023-06-29T05:06:15.522Z,18.16
2023-06-29T05:07:17.943Z,18.18
2023-06-29T05:08:20.204Z,18.23
2023-06-29T05:09:22.050Z,18.27
2023-06-29T05:10:24.543Z,18.31
2023-06-29T05:11:26.424Z,18.35
2023-06-29T05:12:28.635Z,18.40
2023-06-29T05:13:30.462Z,18.44
2023-06-29T05:14:32.363Z,18.51
2023-06-29T05:15:34.241Z,18.55
2023-06-29T05:16:37.692Z,18.58
2023-06-29T05:17:39.567Z,18.62
2023-06-29T05:18:41.482Z,18.66
2023-06-29T05:19:43.321Z,18.70
2023-06-29T05:20:45.205Z,18.74
2023-06-29T05:21:47.324Z,18.77
2023-06-29T05:22:49.310Z,18.80
2023-06-29T05:23:51.654Z,18.81
2023-06-29T05:24:53.522Z,18.83
2023-06-29T05:25:55.327Z,18.85
2023-06-29T05:26:57.839Z,18.86
2023-06-29T05:27:59.700Z,18.87
2023-06-29T05:29:05.751Z,18.88
2023-06-29T05:30:12.668Z,18.91
2023-06-29T05:31:16.409Z,18.93
2023-06-29T05:32:18.516Z,18.96
2023-06-29T05:33:20.362Z,18.99
2023-06-29T05:34:22.453Z,19.05
2023-06-29T05:35:24.293Z,19.11
2023-06-29T05:36:26.276Z,19.16
2023-06-29T05:37:30.479Z,19.19
2023-06-29T05:38:32.416Z,19.24
2023-06-29T05:39:34.220Z,19.26
2023-06-29T05:40:35.997Z,19.29
2023-06-29T05:41:39.540Z,19.30
2023-06-29T05:42:41.472Z,19.32
2023-06-29T05:43:43.267Z,19.32
2023-06-29T05:44:45.119Z,19.33
2023-06-29T05:45:46.975Z,19.31
2023-06-29T05:46:48.912Z,19.29
2023-06-29T05:47:50.777Z,19.30
2023-06-29T05:48:52.806Z,19.33
2023-06-29T05:49:54.627Z,19.34
2023-06-29T05:50:56.500Z,19.35
2023-06-29T05:51:58.349Z,19.35
2023-06-29T05:53:00.158Z,19.34
2023-06-29T05:54:03.462Z,19.35
2023-06-29T05:55:05.963Z,19.37
2023-06-29T05:56:07.849Z,19.37
2023-06-29T05:57:09.695Z,19.38
2023-06-29T05:58:11.574Z,19.41
2023-06-29T05:59:13.759Z,19.42
2023-06-29T06:00:16.855Z,19.46
2023-06-29T06:01:18.860Z,19.49
2023-06-29T06:02:20.715Z,19.54
2023-06-29T06:03:23.624Z,19.60
2023-06-29T06:04:25.784Z,19.65
2023-06-29T06:05:30.055Z,19.68
2023-06-29T06:06:32.150Z,19.71
2023-06-29T06:07:35.763Z,19.73
2023-06-29T06:08:37.644Z,19.75
2023-06-29T06:09:39.466Z,19.78
2023-06-29T06:10:41.791Z,19.80
2023-06-29T06:11:44.057Z,19.87
2023-06-29T06:12:45.862Z,19.96
2023-06-29T06:13:47.684Z,20.03
2023-06-29T06:14:50.034Z,20.15
2023-06-29T06:15:52.045Z,20.25
2023-06-29T06:16:54.234Z,20.37
2023-06-29T06:17:56.088Z,20.49
2023-06-29T06:18:57.951Z,20.61
2023-06-29T06:19:59.730Z,20.75
2023-06-29T06:21:01.531Z,20.88
2023-06-29T06:22:03.528Z,21.03
2023-06-29T06:23:05.431Z,21.19
2023-06-29T06:24:07.396Z,21.33
2023-06-29T06:25:10.006Z,21.47
2023-06-29T06:26:11.905Z,21.57
2023-06-29T06:27:13.835Z,21.60
2023-06-29T06:28:15.702Z,21.63
2023-06-29T06:29:17.515Z,21.71
2023-06-29T06:30:19.425Z,21.79
2023-06-29T06:31:32.880Z,21.84
2023-06-29T06:32:37.280Z,21.91
2023-06-29T06:33:41.120Z,21.97
2023-06-29T06:34:45.076Z,21.95
2023-06-29T06:35:47.180Z,21.92
2023-06-29T06:36:49.446Z,21.89
2023-06-29T06:37:51.249Z,21.86
2023-06-29T06:38:53.051Z,21.82
2023-06-29T06:39:54.877Z,21.78
2023-06-29T06:40:56.710Z,21.71
2023-06-29T06:41:58.585Z,21.62
2023-06-29T06:43:00.784Z,21.57
2023-06-29T06:44:02.695Z,21.49
2023-06-29T06:45:06.457Z,21.46
2023-06-29T06:46:08.400Z,21.44
2023-06-29T06:47:10.520Z,21.42
2023-06-29T06:48:12.503Z,21.39
2023-06-29T06:49:14.676Z,21.39
2023-06-29T06:50:16.498Z,21.38
2023-06-29T06:51:18.370Z,21.39
2023-06-29T06:52:20.288Z,21.38
2023-06-29T06:53:22.092Z,21.37
2023-06-29T06:54:23.903Z,21.37
2023-06-29T06:55:25.688Z,21.37
2023-06-29T06:56:27.511Z,21.36
2023-06-29T06:57:29.343Z,21.34
2023-06-29T06:58:31.182Z,21.33
2023-06-29T06:59:32.997Z,21.28
2023-06-29T07:00:34.970Z,21.25
2023-06-29T07:01:42.417Z,21.20
2023-06-29T07:02:44.378Z,21.16
2023-06-29T07:03:46.212Z,21.14
2023-06-29T07:04:48.234Z,21.11
2023-06-29T07:05:50.850Z,21.09
2023-06-29T07:06:52.701Z,21.10
2023-06-29T07:07:55.934Z,21.09
2023-06-29T07:09:00.325Z,21.07
2023-06-29T07:10:02.187Z,21.04
2023-06-29T07:11:04.534Z,21.00
2023-06-29T07:12:07.726Z,21.00
2023-06-29T07:13:09.712Z,20.96
2023-06-29T07:14:11.604Z,20.92
2023-06-29T07:15:13.550Z,20.89
2023-06-29T07:16:15.548Z,20.88
2023-06-29T07:17:17.369Z,20.87
2023-06-29T07:18:19.159Z,20.85
2023-06-29T07:21:30.991Z,20.76
2023-06-29T07:24:42.536Z,20.69
2023-06-29T07:25:44.716Z,20.68
2023-06-29T07:26:46.793Z,20.67
2023-06-29T07:27:48.626Z,20.66
2023-06-29T07:28:51.729Z,20.65
2023-06-29T07:29:54.780Z,20.64
2023-06-29T07:30:56.672Z,20.65
2023-06-29T07:31:58.623Z,20.64
2023-06-29T07:33:01.065Z,20.62
2023-06-29T07:34:02.987Z,20.62
2023-06-29T07:35:06.472Z,20.64
2023-06-29T07:36:09.502Z,20.65
2023-06-29T07:37:12.517Z,20.66
2023-06-29T07:38:14.663Z,20.67
2023-06-29T07:39:17.973Z,20.69
2023-06-29T07:40:21.151Z,20.72
2023-06-29T07:41:24.211Z,20.75
2023-06-29T07:42:38.332Z,20.77
2023-06-29T07:43:47.276Z,20.79
2023-06-29T07:44:49.118Z,20.82
2023-06-29T07:45:51.805Z,20.83
2023-06-29T07:46:54.388Z,20.86
2023-06-29T07:47:56.377Z,20.84
2023-06-29T07:48:59.968Z,20.86
2023-06-29T07:50:01.885Z,20.87
2023-06-29T07:51:04.975Z,20.87
2023-06-29T07:52:07.461Z,20.89
2023-06-29T07:53:09.919Z,20.91
2023-06-29T07:54:11.774Z,20.95
2023-06-29T07:55:13.802Z,20.94
2023-06-29T07:56:15.975Z,20.98
2023-06-29T07:59:27.366Z,21.05
2023-06-29T08:00:29.854Z,21.05
2023-06-29T08:01:38.215Z,21.07
2023-06-29T08:02:40.254Z,21.06
2023-06-29T08:04:00.269Z,21.05
2023-06-29T08:07:14.067Z,21.09
2023-06-29T08:08:16.292Z,21.08
2023-06-29T08:09:18.349Z,21.09
2023-06-29T08:10:20.541Z,21.08
2023-06-29T08:11:22.832Z,21.08
2023-06-29T08:12:26.259Z,21.10
2023-06-29T08:13:28.347Z,21.10
2023-06-29T08:14:30.181Z,21.10
2023-06-29T08:15:32.113Z,21.12
2023-06-29T08:16:34.202Z,21.15
2023-06-29T08:17:36.392Z,21.16
2023-06-29T08:18:40.870Z,21.15
2023-06-29T08:19:42.670Z,21.14
2023-06-29T08:20:47.180Z,21.15
2023-06-29T08:21:49.024Z,21.15
2023-06-29T08:22:50.949Z,21.18
2023-06-29T08:23:52.836Z,21.16
2023-06-29T08:24:54.654Z,21.16
2023-06-29T08:25:56.724Z,21.18
2023-06-29T08:27:00.270Z,21.15
2023-06-29T08:28:02.157Z,21.18
2023-06-29T08:29:03.954Z,21.19
2023-06-29T08:30:06.807Z,21.18
2023-06-29T08:31:08.708Z,21.19
2023-06-29T08:32:10.795Z,21.19
2023-06-29T08:33:12.835Z,21.17
2023-06-29T08:34:14.868Z,21.16
2023-06-29T08:35:16.841Z,21.17
2023-06-29T08:36:18.742Z,21.18
2023-06-29T08:37:21.169Z,21.18
2023-06-29T08:38:23.005Z,21.19
2023-06-29T08:39:24.820Z,21.21
2023-06-29T08:40:32.025Z,21.22
2023-06-29T08:41:33.882Z,21.23
2023-06-29T08:42:41.186Z,21.26
2023-06-29T08:43:43.497Z,21.27
2023-06-29T08:44:45.491Z,21.29
2023-06-29T08:45:47.530Z,21.30
2023-06-29T08:46:50.344Z,21.32
2023-06-29T08:47:55.271Z,21.33
2023-06-29T08:48:57.928Z,21.36
2023-06-29T08:50:04.505Z,21.38
2023-06-29T08:51:11.559Z,21.40
2023-06-29T08:52:21.414Z,21.40
2023-06-29T08:53:23.982Z,21.41
2023-06-29T08:54:29.094Z,21.42
2023-06-29T08:55:31.321Z,21.44
2023-06-29T08:56:34.085Z,21.42
2023-06-29T08:57:37.505Z,21.42
2023-06-29T08:58:40.758Z,21.41
2023-06-29T08:59:43.278Z,21.40
2023-06-29T09:00:45.968Z,21.38
2023-06-29T09:01:48.488Z,21.40
2023-06-29T09:02:54.768Z,21.39
2023-06-29T09:03:56.915Z,21.41
2023-06-29T09:04:59.841Z,21.40
2023-06-29T09:06:01.684Z,21.40
2023-06-29T09:07:06.988Z,21.39
2023-06-29T09:08:08.882Z,21.40
2023-06-29T09:09:11.050Z,21.39
2023-06-29T09:10:12.902Z,21.37
2023-06-29T09:11:14.803Z,21.35
2023-06-29T09:12:18.021Z,21.32
2023-06-29T09:13:19.818Z,21.30
2023-06-29T09:14:23.522Z,21.29
2023-06-29T09:15:29.606Z,21.28
2023-06-29T09:16:31.478Z,21.28
2023-06-29T09:17:35.234Z,21.29
2023-06-29T09:18:37.182Z,21.29
2023-06-29T09:19:38.927Z,21.28
2023-06-29T09:20:45.106Z,21.27
2023-06-29T09:21:49.007Z,21.26
2023-06-29T09:22:54.647Z,21.27
2023-06-29T09:23:59.066Z,21.25
2023-06-29T09:25:12.818Z,21.25
2023-06-29T09:26:29.084Z,21.24
2023-06-29T09:27:31.036Z,21.22
2023-06-29T09:28:36.551Z,21.23
2023-06-29T09:29:40.219Z,21.25
2023-06-29T09:30:43.318Z,21.26
2023-06-29T09:31:59.845Z,21.29
2023-06-29T09:33:16.510Z,21.32
2023-06-29T09:34:21.569Z,21.36
2023-06-29T09:35:24.554Z,21.39
2023-06-29T09:36:29.570Z,21.44
2023-06-29T09:37:31.430Z,21.43
2023-06-29T09:38:33.512Z,21.42
2023-06-29T09:39:35.305Z,21.41
2023-06-29T09:40:56.250Z,21.41
2023-06-29T09:41:58.318Z,21.41
2023-06-29T09:43:04.389Z,21.40
2023-06-29T09:44:08.024Z,21.41
2023-06-29T09:45:16.370Z,21.41
2023-06-29T09:46:19.363Z,21.41
2023-06-29T09:49:32.976Z,21.39
2023-06-29T09:50:35.061Z,21.41
2023-06-29T09:51:37.217Z,21.43
2023-06-29T09:52:50.944Z,21.48
2023-06-29T09:53:54.381Z,21.51
2023-06-29T09:54:59.277Z,21.56
2023-06-29T09:56:05.805Z,21.57
2023-06-29T09:57:11.928Z,21.60
2023-06-29T09:58:15.188Z,21.64
2023-06-29T09:59:18.462Z,21.66
2023-06-29T10:00:21.364Z,21.69
2023-06-29T10:01:29.847Z,21.70
2023-06-29T10:02:32.096Z,21.71
2023-06-29T10:03:34.315Z,21.71
2023-06-29T10:04:42.631Z,21.69
2023-06-29T10:05:44.967Z,21.67
2023-06-29T10:07:06.649Z,21.69
2023-06-29T10:08:15.588Z,21.74
2023-06-29T10:09:24.400Z,21.80
2023-06-29T10:10:33.399Z,21.87
2023-06-29T10:11:38.145Z,21.94
2023-06-29T10:12:40.017Z,22.02
2023-06-29T10:13:52.623Z,22.13
2023-06-29T10:15:07.120Z,22.23
2023-06-29T10:16:13.392Z,22.32
2023-06-29T10:17:42.747Z,22.43
2023-06-29T10:18:50.810Z,22.61
2023-06-29T10:19:55.870Z,22.74
2023-06-29T10:20:58.027Z,22.87
2023-06-29T10:22:11.918Z,22.98
2023-06-29T10:23:17.937Z,23.05
2023-06-29T10:24:39.978Z,23.11
2023-06-29T10:25:48.002Z,23.16
2023-06-29T10:26:50.888Z,23.22
2023-06-29T10:27:56.149Z,23.30
2023-06-29T10:28:58.831Z,23.38
2023-06-29T10:30:06.043Z,23.47
2023-06-29T10:31:07.958Z,23.54
2023-06-29T10:32:10.131Z,23.65
2023-06-29T10:33:12.090Z,23.74
2023-06-29T10:34:14.696Z,23.83
2023-06-29T10:35:16.867Z,23.90
2023-06-29T10:36:19.202Z,23.93
2023-06-29T10:37:36.501Z,23.97
2023-06-29T10:38:38.404Z,24.00
2023-06-29T10:39:41.260Z,24.04
2023-06-29T10:40:50.451Z,24.08
2023-06-29T10:41:52.310Z,24.11
2023-06-29T10:42:57.645Z,24.12
2023-06-29T10:44:06.688Z,24.07
2023-06-29T10:45:17.478Z,24.00
2023-06-29T10:46:39.275Z,23.92
2023-06-29T10:47:42.276Z,23.79
2023-06-29T10:49:01.610Z,23.75
2023-06-29T10:50:22.872Z,23.76
2023-06-29T10:51:24.687Z,23.81
2023-06-29T10:52:26.588Z,23.85
2023-06-29T10:53:30.813Z,23.88
2023-06-29T10:54:33.059Z,23.91
2023-06-29T10:55:53.215Z,23.94
2023-06-29T10:57:07.316Z,24.00
2023-06-29T10:58:21.712Z,24.05
2023-06-29T10:59:24.055Z,24.11
2023-06-29T11:00:27.700Z,24.12
2023-06-29T11:01:29.745Z,24.11
2023-06-29T11:02:32.991Z,24.14
2023-06-29T11:03:36.198Z,24.16
2023-06-29T11:04:41.498Z,24.19
2023-06-29T11:05:44.842Z,24.20
2023-06-29T11:06:46.775Z,24.22
2023-06-29T11:07:53.946Z,24.21
2023-06-29T11:08:55.745Z,24.20
2023-06-29T11:10:05.582Z,24.15
2023-06-29T11:11:18.357Z,24.10
2023-06-29T11:12:20.168Z,24.01
2023-06-29T11:13:22.617Z,23.92
2023-06-29T11:14:24.404Z,23.89
2023-06-29T11:15:28.540Z,23.84
2023-06-29T11:16:32.342Z,23.79
2023-06-29T11:17:34.426Z,23.78
2023-06-29T11:18:36.288Z,23.77
2023-06-29T11:19:49.372Z,23.76
2023-06-29T11:20:51.330Z,23.76
2023-06-29T11:21:55.783Z,23.78
2023-06-29T11:23:01.059Z,23.78
2023-06-29T11:24:02.917Z,23.77
2023-06-29T11:25:05.753Z,23.78
2023-06-29T11:26:07.611Z,23.81
2023-06-29T11:27:09.476Z,23.83
2023-06-29T11:28:15.081Z,23.81
2023-06-29T11:29:17.082Z,23.76
2023-06-29T11:30:21.811Z,23.72
2023-06-29T11:31:25.255Z,23.69
2023-06-29T11:32:31.048Z,23.69
2023-06-29T11:33:35.235Z,23.70
2023-06-29T11:34:37.252Z,23.76
2023-06-29T11:35:44.114Z,23.82
2023-06-29T11:38:09.900Z,24.03
2023-06-29T11:39:13.987Z,24.11
2023-06-29T11:40:23.620Z,24.19
2023-06-29T11:41:25.435Z,24.23
2023-06-29T11:42:27.736Z,24.21
2023-06-29T11:43:31.593Z,24.17
2023-06-29T11:44:34.228Z,24.11
2023-06-29T11:45:36.796Z,24.08
2023-06-29T11:46:40.096Z,24.09
2023-06-29T11:47:43.136Z,24.12
2023-06-29T11:48:56.572Z,24.16
2023-06-29T11:50:01.160Z,24.20
2023-06-29T11:51:03.979Z,24.24
2023-06-29T11:52:09.048Z,24.26
2023-06-29T11:53:12.898Z,24.27
2023-06-29T11:54:15.221Z,24.28
2023-06-29T11:55:17.071Z,24.29
2023-06-29T11:56:39.531Z,24.27
2023-06-29T11:57:44.799Z,24.28
2023-06-29T11:58:48.929Z,24.31
2023-06-29T11:59:50.809Z,24.26
2023-06-29T12:00:58.910Z,24.19
2023-06-29T12:02:01.480Z,24.12
2023-06-29T12:03:11.737Z,24.03
2023-06-29T12:04:14.605Z,23.97
2023-06-29T12:05:16.558Z,23.92
2023-06-29T12:06:18.392Z,23.89
2023-06-29T12:07:20.425Z,23.88
2023-06-29T12:08:22.721Z,23.87
2023-06-29T12:09:36.083Z,23.90
2023-06-29T12:10:40.457Z,23.92
2023-06-29T12:11:42.345Z,23.94
2023-06-29T12:12:49.907Z,23.95
2023-06-29T12:13:51.777Z,23.96
2023-06-29T12:14:53.722Z,23.98
2023-06-29T12:18:16.759Z,23.99
2023-06-29T12:19:19.139Z,24.01
2023-06-29T12:20:23.381Z,24.01
2023-06-29T12:21:25.709Z,24.01
2023-06-29T12:22:27.691Z,24.02
2023-06-29T12:23:29.624Z,24.04
2023-06-29T12:24:32.690Z,24.06
2023-06-29T12:25:49.253Z,24.12
2023-06-29T12:26:51.132Z,24.14
2023-06-29T12:27:53.043Z,24.14
2023-06-29T12:28:56.001Z,24.16
2023-06-29T12:29:57.821Z,24.16
2023-06-29T12:31:04.206Z,24.16
2023-06-29T12:32:07.093Z,24.17
2023-06-29T12:33:12.523Z,24.17
2023-06-29T12:34:14.324Z,24.21
2023-06-29T12:35:17.972Z,24.23
2023-06-29T12:36:21.078Z,24.25
2023-06-29T12:37:22.872Z,24.29
2023-06-29T12:38:24.899Z,24.32
2023-06-29T12:39:26.712Z,24.37
2023-06-29T12:40:29.534Z,24.43
2023-06-29T12:41:32.602Z,24.46
2023-06-29T12:42:35.243Z,24.51
2023-06-29T12:43:37.237Z,24.53
2023-06-29T12:44:39.125Z,24.57
2023-06-29T12:45:41.554Z,24.58
2023-06-29T12:46:43.370Z,24.53
2023-06-29T12:47:45.253Z,24.50
2023-06-29T12:48:47.795Z,24.43
2023-06-29T12:49:51.804Z,24.41
2023-06-29T12:51:00.537Z,24.36
2023-06-29T12:52:04.387Z,24.31
2023-06-29T12:53:06.189Z,24.31
2023-06-29T12:54:10.609Z,24.32
2023-06-29T12:55:12.500Z,24.31
2023-06-29T12:56:14.484Z,24.30
2023-06-29T12:57:16.475Z,24.30
2023-06-29T12:58:18.320Z,24.33
2023-06-29T12:59:20.115Z,24.33
2023-06-29T13:00:22.956Z,24.31
2023-06-29T13:01:25.621Z,24.30
2023-06-29T13:02:28.584Z,24.33
2023-06-29T13:03:30.721Z,24.36
2023-06-29T13:04:39.248Z,24.40
2023-06-29T13:05:44.462Z,24.45
2023-06-29T13:06:46.657Z,24.47
2023-06-29T13:07:48.637Z,24.52
2023-06-29T13:08:50.617Z,24.50
2023-06-29T13:09:53.348Z,24.50
2023-06-29T13:10:55.606Z,24.47
2023-06-29T13:12:02.661Z,24.45
2023-06-29T13:13:06.528Z,24.45
2023-06-29T13:14:08.455Z,24.46
2023-06-29T13:15:11.247Z,24.50
2023-06-29T13:16:13.237Z,24.53
2023-06-29T13:17:15.529Z,24.54
2023-06-29T13:18:17.536Z,24.54
2023-06-29T13:19:19.437Z,24.53
2023-06-29T13:20:21.340Z,24.55
2023-06-29T13:21:23.194Z,24.57
2023-06-29T13:22:25.058Z,24.61
2023-06-29T13:23:26.938Z,24.65
2023-06-29T13:24:28.778Z,24.71
2023-06-29T13:25:30.621Z,24.75
2023-06-29T13:26:32.441Z,24.77
2023-06-29T13:27:34.769Z,24.78
2023-06-29T13:28:36.553Z,24.80
2023-06-29T13:29:38.626Z,24.82
2023-06-29T13:30:41.970Z,24.82
2023-06-29T13:31:45.145Z,24.85
2023-06-29T13:32:46.988Z,24.85
2023-06-29T13:33:48.977Z,24.82
2023-06-29T13:34:50.935Z,24.78
2023-06-29T13:35:52.716Z,24.79
2023-06-29T13:36:55.750Z,24.80
2023-06-29T13:37:57.598Z,24.85
2023-06-29T13:38:59.391Z,24.87
2023-06-29T13:40:01.228Z,24.88
2023-06-29T13:41:04.816Z,24.92
2023-06-29T13:42:11.005Z,24.93
2023-06-29T13:43:12.899Z,24.93
2023-06-29T13:44:14.865Z,24.92
2023-06-29T13:45:16.693Z,24.90
2023-06-29T13:46:18.486Z,24.88
2023-06-29T13:47:23.623Z,24.88
2023-06-29T13:48:25.615Z,24.88
2023-06-29T13:49:27.495Z,24.85
2023-06-29T13:50:40.764Z,24.85
2023-06-29T13:51:45.319Z,24.83
2023-06-29T13:52:48.395Z,24.82